createdAt,value
2023-07-26T00:00:24.188Z,1000.83
2023-07-26T00:00:54.207Z,1000.841
2023-07-26T00:01:24.231Z,1000.853
2023-07-26T00:01:54.204Z,1000.859
2023-07-26T00:02:24.252Z,1000.87
2023-07-26T00:02:54.205Z,1000.867
2023-07-26T00:03:24.199Z,1000.86
2023-07-26T00:03:54.247Z,1000.873
2023-07-26T00:04:24.194Z,1000.873
2023-07-26T00:04:54.188Z,1000.87
2023-07-26T00:05:24.219Z,1000.87
2023-07-26T00:05:54.194Z,1000.875
2023-07-26T00:06:24.190Z,1000.872
2023-07-26T00:06:54.192Z,1000.875
2023-07-26T00:07:24.195Z,1000.885
2023-07-26T00:07:54.205Z,1000.886
2023-07-26T00:08:24.189Z,1000.889
2023-07-26T00:08:54.185Z,1000.895
2023-07-26T00:09:24.191Z,1000.908
2023-07-26T00:09:54.189Z,1000.908
2023-07-26T00:10:24.205Z,1000.915
2023-07-26T00:10:54.205Z,1000.917
2023-07-26T00:11:24.190Z,1000.919
2023-07-26T00:11:54.190Z,1000.926
2023-07-26T00:12:24.198Z,1000.931
2023-07-26T00:12:54.212Z,1000.935
2023-07-26T00:13:24.190Z,1000.938
2023-07-26T00:13:54.220Z,1000.94
2023-07-26T00:14:24.203Z,1000.955
2023-07-26T00:14:54.193Z,1000.959
2023-07-26T00:15:24.211Z,1000.974
2023-07-26T00:15:54.225Z,1000.996
2023-07-26T00:16:24.270Z,1001.002
2023-07-26T00:16:54.192Z,1001.005
2023-07-26T00:17:24.234Z,1001.01
2023-07-26T00:17:54.240Z,1001.016
2023-07-26T00:18:24.191Z,1001.019
2023-07-26T00:18:54.201Z,1001.021
2023-07-26T00:19:24.199Z,1001.016
2023-07-26T00:19:54.192Z,1000.999
2023-07-26T00:20:24.198Z,1000.993
2023-07-26T00:20:54.195Z,1000.981
2023-07-26T00:21:24.190Z,1000.973
2023-07-26T00:21:54.189Z,1000.964
2023-07-26T00:22:24.197Z,1000.957
2023-07-26T00:22:54.205Z,1000.953
2023-07-26T00:23:24.195Z,1000.944
2023-07-26T00:23:54.214Z,1000.946
2023-07-26T00:24:24.224Z,1000.95
2023-07-26T00:24:54.214Z,1000.957
2023-07-26T00:25:24.196Z,1000.96
2023-07-26T00:25:54.194Z,1000.969
2023-07-26T00:26:24.209Z,1000.983
2023-07-26T00:26:54.195Z,1000.983
2023-07-26T00:27:24.195Z,1000.98
2023-07-26T00:27:54.194Z,1000.976
2023-07-26T00:28:24.195Z,1000.972
2023-07-26T00:28:54.212Z,1000.98
2023-07-26T00:29:24.192Z,1000.989
2023-07-26T00:29:54.234Z,1000.996
2023-07-26T00:30:24.260Z,1001.01
2023-07-26T00:30:54.230Z,1001.024
2023-07-26T00:31:24.231Z,1001.036
2023-07-26T00:31:54.226Z,1001.049
2023-07-26T00:32:24.221Z,1001.04
2023-07-26T00:32:54.246Z,1001.055
2023-07-26T00:33:24.225Z,1001.052
2023-07-26T00:33:54.199Z,1001.046
2023-07-26T00:34:24.194Z,1001.045
2023-07-26T00:34:54.217Z,1001.044
2023-07-26T00:35:24.202Z,1001.041
2023-07-26T00:35:54.195Z,1001.042
2023-07-26T00:36:24.195Z,1001.042
2023-07-26T00:36:54.199Z,1001.034
2023-07-26T00:37:24.196Z,1001.034
2023-07-26T00:37:54.211Z,1001.039
2023-07-26T00:38:24.205Z,1001.03
2023-07-26T00:38:54.203Z,1001.019
2023-07-26T00:39:24.199Z,1001.01
2023-07-26T00:39:54.198Z,1001.008
2023-07-26T00:40:24.247Z,1001.002
2023-07-26T00:40:54.203Z,1000.997
2023-07-26T00:41:24.206Z,1000.989
2023-07-26T00:41:54.207Z,1000.983
2023-07-26T00:42:24.202Z,1000.978
2023-07-26T00:42:54.208Z,1000.981
2023-07-26T00:43:24.199Z,1000.973
2023-07-26T00:43:54.201Z,1000.976
2023-07-26T00:44:24.206Z,1000.967
2023-07-26T00:44:54.201Z,1000.968
2023-07-26T00:45:24.206Z,1000.975
2023-07-26T00:45:54.204Z,1000.983
2023-07-26T00:46:24.247Z,1000.989
2023-07-26T00:46:54.243Z,1001
2023-07-26T00:47:24.205Z,1001.008
2023-07-26T00:47:54.236Z,1001.018
2023-07-26T00:48:24.219Z,1001.018
2023-07-26T00:48:54.221Z,1001.018
2023-07-26T00:49:24.202Z,1001.02
2023-07-26T00:49:54.213Z,1001.026
2023-07-26T00:50:24.208Z,1001.023
2023-07-26T00:50:54.201Z,1001.014
2023-07-26T00:51:24.207Z,1001.012
2023-07-26T00:51:54.211Z,1001.017
2023-07-26T00:52:24.207Z,1001.019
2023-07-26T00:52:54.211Z,1001.014
2023-07-26T00:53:24.207Z,1001.016
2023-07-26T00:53:54.204Z,1001.028
2023-07-26T00:54:24.207Z,1001.031
2023-07-26T00:54:54.210Z,1001.028
2023-07-26T00:55:24.207Z,1001.036
2023-07-26T00:55:54.227Z,1001.039
2023-07-26T00:56:24.205Z,1001.047
2023-07-26T00:56:54.213Z,1001.041
2023-07-26T00:57:24.209Z,1001.042
2023-07-26T00:57:54.219Z,1001.044
2023-07-26T00:58:24.208Z,1001.042
2023-07-26T00:58:54.212Z,1001.052
2023-07-26T00:59:24.207Z,1001.054
2023-07-26T00:59:54.210Z,1001.06
2023-07-26T01:00:24.206Z,1001.067
2023-07-26T01:00:54.261Z,1001.075
2023-07-26T01:01:24.264Z,1001.081
2023-07-26T01:01:54.231Z,1001.084
2023-07-26T01:02:24.300Z,1001.093
2023-07-26T01:02:54.299Z,1001.096
2023-07-26T01:03:24.231Z,1001.098
2023-07-26T01:03:54.214Z,1001.095
2023-07-26T01:04:24.211Z,1001.098
2023-07-26T01:04:54.236Z,1001.08
2023-07-26T01:05:24.220Z,1001.073
2023-07-26T01:05:54.238Z,1001.05
2023-07-26T01:06:24.226Z,1001.033
2023-07-26T01:06:54.240Z,1001.02
2023-07-26T01:07:24.220Z,1001.014
2023-07-26T01:07:54.215Z,1001.001
2023-07-26T01:08:24.210Z,1000.998
2023-07-26T01:08:54.219Z,1000.997
2023-07-26T01:09:24.222Z,1000.997
2023-07-26T01:09:54.211Z,1000.992
2023-07-26T01:10:24.210Z,1000.986
2023-07-26T01:10:54.213Z,1000.976
2023-07-26T01:11:24.214Z,1000.976
2023-07-26T01:11:54.222Z,1000.973
2023-07-26T01:12:24.217Z,1000.973
2023-07-26T01:12:54.213Z,1000.979
2023-07-26T01:13:24.212Z,1000.979
2023-07-26T01:13:54.221Z,1000.982
2023-07-26T01:14:24.214Z,1000.978
2023-07-26T01:14:54.349Z,1000.981
2023-07-26T01:15:24.225Z,1000.981
2023-07-26T01:15:54.227Z,1000.993
2023-07-26T01:16:24.213Z,1000.991
2023-07-26T01:16:54.274Z,1001.004
2023-07-26T01:17:24.243Z,1001.009
2023-07-26T01:17:54.268Z,1001.019
2023-07-26T01:18:24.228Z,1001.013
2023-07-26T01:18:54.223Z,1001.026
2023-07-26T01:19:24.230Z,1001.02
2023-07-26T01:19:54.222Z,1001.024
2023-07-26T01:20:24.218Z,1001.018
2023-07-26T01:20:54.229Z,1001.024
2023-07-26T01:21:24.219Z,1001.01
2023-07-26T01:21:54.237Z,1000.996
2023-07-26T01:22:24.223Z,1000.984
2023-07-26T01:22:54.226Z,1000.968
2023-07-26T01:23:24.218Z,1000.951
2023-07-26T01:23:54.225Z,1000.944
2023-07-26T01:24:24.306Z,1000.935
2023-07-26T01:24:54.261Z,1000.936
2023-07-26T01:25:24.218Z,1000.939
2023-07-26T01:25:54.223Z,1000.938
2023-07-26T01:26:24.217Z,1000.947
2023-07-26T01:26:54.223Z,1000.957
2023-07-26T01:27:24.219Z,1000.957
2023-07-26T01:27:54.229Z,1000.965
2023-07-26T01:28:24.221Z,1000.966
2023-07-26T01:28:54.267Z,1000.972
2023-07-26T01:29:24.879Z,1000.979
2023-07-26T01:29:54.230Z,1000.981
2023-07-26T01:30:24.244Z,1000.983
2023-07-26T01:30:54.263Z,1000.987
2023-07-26T01:31:24.326Z,1000.99
2023-07-26T01:31:54.234Z,1000.995
2023-07-26T01:32:24.250Z,1001.002
2023-07-26T01:32:54.257Z,1001.007
2023-07-26T01:33:24.233Z,1001.014
2023-07-26T01:33:54.241Z,1001.018
2023-07-26T01:34:24.227Z,1001.007
2023-07-26T01:34:54.234Z,1001.007
2023-07-26T01:35:24.227Z,1001.002
2023-07-26T01:35:54.234Z,1001.011
2023-07-26T01:36:24.255Z,1001.007
2023-07-26T01:36:54.227Z,1001
2023-07-26T01:37:24.241Z,1001.008
2023-07-26T01:37:54.235Z,1001.008
2023-07-26T01:38:24.228Z,1001.008
2023-07-26T01:38:54.233Z,1000.998
2023-07-26T01:39:24.225Z,1000.998
2023-07-26T01:39:54.238Z,1001.011
2023-07-26T01:40:24.230Z,1001.008
2023-07-26T01:40:54.227Z,1001.02
2023-07-26T01:41:24.245Z,1001.016
2023-07-26T01:41:54.239Z,1001.018
2023-07-26T01:42:24.229Z,1001.017
2023-07-26T01:42:54.228Z,1001.025
2023-07-26T01:43:24.226Z,1001.042
2023-07-26T01:43:54.228Z,1001.048
2023-07-26T01:44:24.229Z,1001.059
2023-07-26T01:44:54.233Z,1001.063
2023-07-26T01:45:24.228Z,1001.08
2023-07-26T01:45:54.270Z,1001.088
2023-07-26T01:46:24.258Z,1001.094
2023-07-26T01:46:54.265Z,1001.104
2023-07-26T01:47:24.272Z,1001.123
2023-07-26T01:47:54.310Z,1001.125
2023-07-26T01:48:24.230Z,1001.121
2023-07-26T01:48:54.270Z,1001.124
2023-07-26T01:49:24.250Z,1001.129
2023-07-26T01:49:54.255Z,1001.127
2023-07-26T01:50:24.228Z,1001.141
2023-07-26T01:50:54.230Z,1001.143
2023-07-26T01:51:24.238Z,1001.143
2023-07-26T01:51:54.231Z,1001.157
2023-07-26T01:52:24.234Z,1001.154
2023-07-26T01:52:54.257Z,1001.156
2023-07-26T01:53:24.242Z,1001.159
2023-07-26T01:53:54.295Z,1001.168
2023-07-26T01:54:24.232Z,1001.173
2023-07-26T01:54:54.232Z,1001.186
2023-07-26T01:55:24.241Z,1001.187
2023-07-26T01:55:54.258Z,1001.2
2023-07-26T01:56:24.230Z,1001.205
2023-07-26T01:56:54.228Z,1001.201
2023-07-26T01:57:24.240Z,1001.203
2023-07-26T01:57:54.228Z,1001.211
2023-07-26T01:58:24.232Z,1001.212
2023-07-26T01:58:54.235Z,1001.202
2023-07-26T01:59:24.250Z,1001.215
2023-07-26T01:59:54.240Z,1001.218
2023-07-26T02:00:24.254Z,1001.218
2023-07-26T02:00:54.228Z,1001.225
2023-07-26T02:01:24.248Z,1001.226
2023-07-26T02:01:54.578Z,1001.232
2023-07-26T02:02:24.264Z,1001.239
2023-07-26T02:02:54.264Z,1001.248
2023-07-26T02:03:24.234Z,1001.233
2023-07-26T02:03:54.256Z,1001.223
2023-07-26T02:04:24.273Z,1001.22
2023-07-26T02:04:54.258Z,1001.223
2023-07-26T02:05:24.233Z,1001.227
2023-07-26T02:05:54.239Z,1001.215
2023-07-26T02:06:24.236Z,1001.2
2023-07-26T02:06:54.238Z,1001.19
2023-07-26T02:07:24.239Z,1001.183
2023-07-26T02:07:54.257Z,1001.17
2023-07-26T02:08:24.237Z,1001.159
2023-07-26T02:08:54.238Z,1001.146
2023-07-26T02:09:24.238Z,1001.138
2023-07-26T02:09:54.237Z,1001.13
2023-07-26T02:10:24.237Z,1001.118
2023-07-26T02:10:54.250Z,1001.115
2023-07-26T02:11:24.261Z,1001.117
2023-07-26T02:11:54.249Z,1001.115
2023-07-26T02:12:24.243Z,1001.105
2023-07-26T02:12:54.236Z,1001.098
2023-07-26T02:13:24.235Z,1001.101
2023-07-26T02:13:54.238Z,1001.103
2023-07-26T02:14:24.243Z,1001.094
2023-07-26T02:14:54.245Z,1001.102
2023-07-26T02:15:24.235Z,1001.107
2023-07-26T02:15:54.262Z,1001.111
2023-07-26T02:16:24.306Z,1001.115
2023-07-26T02:16:54.248Z,1001.127
2023-07-26T02:17:24.272Z,1001.132
2023-07-26T02:17:54.254Z,1001.149
2023-07-26T02:18:24.270Z,1001.154
2023-07-26T02:18:54.250Z,1001.159
2023-07-26T02:19:24.240Z,1001.161
2023-07-26T02:19:54.242Z,1001.165
2023-07-26T02:20:24.241Z,1001.177
2023-07-26T02:20:54.250Z,1001.188
2023-07-26T02:21:24.260Z,1001.196
2023-07-26T02:21:54.242Z,1001.191
2023-07-26T02:22:24.241Z,1001.198
2023-07-26T02:22:54.250Z,1001.199
2023-07-26T02:23:24.258Z,1001.224
2023-07-26T02:23:54.243Z,1001.224
2023-07-26T02:24:24.273Z,1001.236
2023-07-26T02:24:54.282Z,1001.233
2023-07-26T02:25:24.257Z,1001.237
2023-07-26T02:25:54.265Z,1001.24
2023-07-26T02:26:24.248Z,1001.247
2023-07-26T02:26:54.254Z,1001.248
2023-07-26T02:27:24.253Z,1001.252
2023-07-26T02:27:54.248Z,1001.259
2023-07-26T02:28:24.250Z,1001.26
2023-07-26T02:28:54.251Z,1001.267
2023-07-26T02:29:24.248Z,1001.269
2023-07-26T02:29:54.242Z,1001.28
2023-07-26T02:30:24.271Z,1001.279
2023-07-26T02:30:54.250Z,1001.292
2023-07-26T02:31:24.289Z,1001.305
2023-07-26T02:31:54.284Z,1001.317
2023-07-26T02:32:24.267Z,1001.325
2023-07-26T02:32:54.284Z,1001.336
2023-07-26T02:33:24.258Z,1001.351
2023-07-26T02:33:54.252Z,1001.375
2023-07-26T02:34:24.267Z,1001.386
2023-07-26T02:34:54.260Z,1001.401
2023-07-26T02:35:24.249Z,1001.418
2023-07-26T02:35:54.259Z,1001.425
2023-07-26T02:36:24.250Z,1001.426
2023-07-26T02:36:54.251Z,1001.432
2023-07-26T02:37:24.248Z,1001.43
2023-07-26T02:37:54.256Z,1001.433
2023-07-26T02:38:24.248Z,1001.432
2023-07-26T02:38:54.255Z,1001.437
2023-07-26T02:39:24.252Z,1001.45
2023-07-26T02:39:54.251Z,1001.461
2023-07-26T02:40:24.248Z,1001.463
2023-07-26T02:40:54.250Z,1001.471
2023-07-26T02:41:24.264Z,1001.463
2023-07-26T02:41:54.246Z,1001.457
2023-07-26T02:42:24.249Z,1001.455
2023-07-26T02:42:55.906Z,1001.449
2023-07-26T02:43:39.874Z,1001.44
2023-07-26T02:43:55.394Z,1001.435
2023-07-26T02:44:24.249Z,1001.426
2023-07-26T02:44:54.259Z,1001.414
2023-07-26T02:45:24.276Z,1001.416
2023-07-26T02:45:54.324Z,1001.398
2023-07-26T02:46:24.277Z,1001.386
2023-07-26T02:46:54.255Z,1001.387
2023-07-26T02:47:24.278Z,1001.395
2023-07-26T02:47:54.314Z,1001.393
2023-07-26T02:48:24.270Z,1001.4
2023-07-26T02:48:54.279Z,1001.42
2023-07-26T02:49:24.257Z,1001.432
2023-07-26T02:49:54.263Z,1001.437
2023-07-26T02:50:24.261Z,1001.446
2023-07-26T02:50:54.254Z,1001.446
2023-07-26T02:51:24.260Z,1001.433
2023-07-26T02:51:54.256Z,1001.425
2023-07-26T02:52:24.272Z,1001.402
2023-07-26T02:52:54.257Z,1001.395
2023-07-26T02:53:24.259Z,1001.398
2023-07-26T02:53:54.266Z,1001.399
2023-07-26T02:54:24.299Z,1001.411
2023-07-26T02:54:54.324Z,1001.417
2023-07-26T02:55:24.259Z,1001.426
2023-07-26T02:55:54.257Z,1001.442
2023-07-26T02:56:24.264Z,1001.454
2023-07-26T02:56:54.261Z,1001.463
2023-07-26T02:57:24.260Z,1001.455
2023-07-26T02:57:54.265Z,1001.461
2023-07-26T02:58:24.260Z,1001.465
2023-07-26T02:58:54.261Z,1001.468
2023-07-26T02:59:24.262Z,1001.456
2023-07-26T02:59:54.264Z,1001.446
2023-07-26T03:00:24.262Z,1001.441
2023-07-26T03:00:54.274Z,1001.438
2023-07-26T03:01:24.276Z,1001.437
2023-07-26T03:01:54.314Z,1001.44
2023-07-26T03:02:24.340Z,1001.44
2023-07-26T03:02:54.324Z,1001.448
2023-07-26T03:03:24.371Z,1001.446
2023-07-26T03:03:54.286Z,1001.448
2023-07-26T03:04:24.270Z,1001.441
2023-07-26T03:04:54.274Z,1001.443
2023-07-26T03:05:24.260Z,1001.445
2023-07-26T03:05:54.262Z,1001.438
2023-07-26T03:06:24.269Z,1001.435
2023-07-26T03:06:54.281Z,1001.436
2023-07-26T03:07:24.261Z,1001.435
2023-07-26T03:07:54.276Z,1001.435
2023-07-26T03:08:24.260Z,1001.436
2023-07-26T03:08:54.264Z,1001.438
2023-07-26T03:09:24.264Z,1001.439
2023-07-26T03:09:54.277Z,1001.453
2023-07-26T03:10:24.284Z,1001.457
2023-07-26T03:10:54.269Z,1001.479
2023-07-26T03:11:24.273Z,1001.473
2023-07-26T03:11:54.269Z,1001.48
2023-07-26T03:12:24.268Z,1001.498
2023-07-26T03:12:54.264Z,1001.514
2023-07-26T03:13:24.279Z,1001.516
2023-07-26T03:13:54.271Z,1001.517
2023-07-26T03:14:24.268Z,1001.524
2023-07-26T03:14:54.274Z,1001.535
2023-07-26T03:15:24.273Z,1001.553
2023-07-26T03:15:54.334Z,1001.567
2023-07-26T03:16:24.321Z,1001.583
2023-07-26T03:16:55.323Z,1001.584
2023-07-26T03:17:25.535Z,1001.582
2023-07-26T03:17:54.311Z,1001.593
2023-07-26T03:18:24.277Z,1001.595
2023-07-26T03:18:54.270Z,1001.598
2023-07-26T03:19:24.277Z,1001.601
2023-07-26T03:19:54.298Z,1001.6
2023-07-26T03:20:24.274Z,1001.589
2023-07-26T03:20:54.265Z,1001.59
2023-07-26T03:21:24.267Z,1001.578
2023-07-26T03:21:54.273Z,1001.574
2023-07-26T03:22:24.273Z,1001.565
2023-07-26T03:22:54.273Z,1001.552
2023-07-26T03:23:24.272Z,1001.553
2023-07-26T03:23:54.316Z,1001.54
2023-07-26T03:24:24.323Z,1001.528
2023-07-26T03:24:54.290Z,1001.528
2023-07-26T03:25:24.271Z,1001.52
2023-07-26T03:25:54.271Z,1001.508
2023-07-26T03:26:24.269Z,1001.495
2023-07-26T03:26:54.276Z,1001.485
2023-07-26T03:27:24.944Z,1001.475
2023-07-26T03:27:54.272Z,1001.474
2023-07-26T03:28:24.267Z,1001.471
2023-07-26T03:28:54.278Z,1001.469
2023-07-26T03:29:24.274Z,1001.461
2023-07-26T03:29:54.282Z,1001.461
2023-07-26T03:30:24.293Z,1001.459
2023-07-26T03:30:54.276Z,1001.458
2023-07-26T03:31:24.281Z,1001.456
2023-07-26T03:31:54.278Z,1001.458
2023-07-26T03:32:24.272Z,1001.461
2023-07-26T03:32:54.381Z,1001.462
2023-07-26T03:33:24.271Z,1001.465
2023-07-26T03:33:54.301Z,1001.474
2023-07-26T03:34:24.303Z,1001.489
2023-07-26T03:34:54.274Z,1001.507
2023-07-26T03:35:24.280Z,1001.531
2023-07-26T03:35:54.281Z,1001.54
2023-07-26T03:36:24.282Z,1001.542
2023-07-26T03:36:54.281Z,1001.547
2023-07-26T03:37:24.270Z,1001.563
2023-07-26T03:37:54.271Z,1001.57
2023-07-26T03:38:24.287Z,1001.563
2023-07-26T03:38:54.273Z,1001.551
2023-07-26T03:39:24.284Z,1001.532
2023-07-26T03:39:54.279Z,1001.52
2023-07-26T03:40:24.274Z,1001.514
2023-07-26T03:40:54.279Z,1001.507
2023-07-26T03:41:24.284Z,1001.494
2023-07-26T03:41:54.278Z,1001.494
2023-07-26T03:42:24.280Z,1001.486
2023-07-26T03:42:54.297Z,1001.483
2023-07-26T03:43:24.275Z,1001.492
2023-07-26T03:43:54.286Z,1001.496
2023-07-26T03:44:24.294Z,1001.504
2023-07-26T03:44:54.288Z,1001.51
2023-07-26T03:45:24.314Z,1001.529
2023-07-26T03:45:54.305Z,1001.547
2023-07-26T03:46:24.278Z,1001.573
2023-07-26T03:46:54.273Z,1001.593
2023-07-26T03:47:24.277Z,1001.615
2023-07-26T03:47:54.303Z,1001.63
2023-07-26T03:48:24.276Z,1001.645
2023-07-26T03:48:54.291Z,1001.634
2023-07-26T03:49:24.296Z,1001.659
2023-07-26T03:49:54.279Z,1001.676
2023-07-26T03:50:24.290Z,1001.69
2023-07-26T03:50:54.289Z,1001.704
2023-07-26T03:51:24.284Z,1001.711
2023-07-26T03:51:54.283Z,1001.717
2023-07-26T03:52:24.289Z,1001.735
2023-07-26T03:52:54.290Z,1001.737
2023-07-26T03:53:24.289Z,1001.755
2023-07-26T03:53:54.301Z,1001.769
2023-07-26T03:54:24.281Z,1001.774
2023-07-26T03:54:54.290Z,1001.775
2023-07-26T03:55:24.291Z,1001.773
2023-07-26T03:55:54.279Z,1001.778
2023-07-26T03:56:24.283Z,1001.753
2023-07-26T03:56:54.280Z,1001.742
2023-07-26T03:57:24.280Z,1001.714
2023-07-26T03:57:54.294Z,1001.703
2023-07-26T03:58:24.286Z,1001.682
2023-07-26T03:58:54.294Z,1001.653
2023-07-26T03:59:24.284Z,1001.607
2023-07-26T03:59:54.295Z,1001.581
2023-07-26T04:00:24.289Z,1001.56
2023-07-26T04:00:54.312Z,1001.548
2023-07-26T04:01:24.305Z,1001.544
2023-07-26T04:01:54.298Z,1001.546
2023-07-26T04:02:24.394Z,1001.559
2023-07-26T04:02:54.408Z,1001.551
2023-07-26T04:03:24.469Z,1001.541
2023-07-26T04:03:54.410Z,1001.545
2023-07-26T04:04:24.298Z,1001.537
2023-07-26T04:04:54.288Z,1001.517
2023-07-26T04:05:24.300Z,1001.503
2023-07-26T04:05:54.300Z,1001.497
2023-07-26T04:06:24.310Z,1001.482
2023-07-26T04:06:54.307Z,1001.478
2023-07-26T04:07:24.290Z,1001.465
2023-07-26T04:07:54.288Z,1001.466
2023-07-26T04:08:24.292Z,1001.459
2023-07-26T04:08:54.296Z,1001.469
2023-07-26T04:09:24.290Z,1001.46
2023-07-26T04:09:54.296Z,1001.462
2023-07-26T04:10:24.300Z,1001.445
2023-07-26T04:10:54.299Z,1001.43
2023-07-26T04:11:24.301Z,1001.43
2023-07-26T04:11:54.291Z,1001.438
2023-07-26T04:12:24.289Z,1001.442
2023-07-26T04:12:54.294Z,1001.441
2023-07-26T04:13:24.290Z,1001.444
2023-07-26T04:13:54.292Z,1001.466
2023-07-26T04:14:24.298Z,1001.484
2023-07-26T04:14:54.294Z,1001.496
2023-07-26T04:15:24.298Z,1001.504
2023-07-26T04:15:54.341Z,1001.5
2023-07-26T04:16:24.351Z,1001.481
2023-07-26T04:16:54.306Z,1001.462
2023-07-26T04:17:24.353Z,1001.448
2023-07-26T04:17:54.331Z,1001.433
2023-07-26T04:18:24.302Z,1001.42
2023-07-26T04:18:54.298Z,1001.419
2023-07-26T04:19:24.294Z,1001.433
2023-07-26T04:19:54.306Z,1001.44
2023-07-26T04:20:24.299Z,1001.441
2023-07-26T04:20:54.310Z,1001.452
2023-07-26T04:21:24.307Z,1001.454
2023-07-26T04:21:54.313Z,1001.458
2023-07-26T04:22:24.300Z,1001.433
2023-07-26T04:22:54.330Z,1001.41
2023-07-26T04:23:24.318Z,1001.406
2023-07-26T04:23:54.300Z,1001.404
2023-07-26T04:24:24.354Z,1001.41
2023-07-26T04:24:54.336Z,1001.417
2023-07-26T04:25:24.299Z,1001.419
2023-07-26T04:25:54.314Z,1001.405
2023-07-26T04:26:24.299Z,1001.394
2023-07-26T04:26:54.308Z,1001.397
2023-07-26T04:27:24.300Z,1001.394
2023-07-26T04:27:54.300Z,1001.395
2023-07-26T04:28:24.303Z,1001.391
2023-07-26T04:28:54.310Z,1001.38
2023-07-26T04:29:24.301Z,1001.366
2023-07-26T04:29:54.299Z,1001.363
2023-07-26T04:30:24.300Z,1001.381
2023-07-26T04:30:55.180Z,1001.376
2023-07-26T04:31:24.342Z,1001.389
2023-07-26T04:31:54.303Z,1001.4
2023-07-26T04:32:24.327Z,1001.402
2023-07-26T04:32:54.479Z,1001.402
2023-07-26T04:33:24.321Z,1001.403
2023-07-26T04:33:54.379Z,1001.415
2023-07-26T04:34:24.302Z,1001.42
2023-07-26T04:34:54.303Z,1001.441
2023-07-26T04:35:24.308Z,1001.445
2023-07-26T04:35:54.312Z,1001.437
2023-07-26T04:36:24.306Z,1001.431
2023-07-26T04:36:54.305Z,1001.433
2023-07-26T04:37:24.316Z,1001.423
2023-07-26T04:37:54.302Z,1001.432
2023-07-26T04:38:24.302Z,1001.439
2023-07-26T04:38:54.303Z,1001.472
2023-07-26T04:39:24.318Z,1001.492
2023-07-26T04:39:54.311Z,1001.489
2023-07-26T04:40:24.311Z,1001.499
2023-07-26T04:40:54.305Z,1001.488
2023-07-26T04:41:24.312Z,1001.47
2023-07-26T04:41:54.307Z,1001.459
2023-07-26T04:42:24.316Z,1001.453
2023-07-26T04:42:54.305Z,1001.452
2023-07-26T04:43:24.347Z,1001.452
2023-07-26T04:43:54.302Z,1001.45
2023-07-26T04:44:24.320Z,1001.438
2023-07-26T04:44:54.314Z,1001.429
2023-07-26T04:45:24.318Z,1001.419
2023-07-26T04:45:54.323Z,1001.413
2023-07-26T04:46:24.356Z,1001.421
2023-07-26T04:46:54.332Z,1001.428
2023-07-26T04:47:24.306Z,1001.434
2023-07-26T04:47:54.339Z,1001.44
2023-07-26T04:48:24.307Z,1001.439
2023-07-26T04:48:54.321Z,1001.458
2023-07-26T04:49:24.307Z,1001.456
2023-07-26T04:49:54.306Z,1001.456
2023-07-26T04:50:24.314Z,1001.457
2023-07-26T04:50:54.319Z,1001.466
2023-07-26T04:51:24.308Z,1001.467
2023-07-26T04:51:54.331Z,1001.471
2023-07-26T04:52:24.316Z,1001.472
2023-07-26T04:52:54.325Z,1001.475
2023-07-26T04:53:24.318Z,1001.486
2023-07-26T04:53:54.320Z,1001.497
2023-07-26T04:54:24.311Z,1001.493
2023-07-26T04:54:54.318Z,1001.508
2023-07-26T04:55:24.313Z,1001.524
2023-07-26T04:55:54.317Z,1001.527
2023-07-26T04:56:24.311Z,1001.525
2023-07-26T04:56:54.316Z,1001.514
2023-07-26T04:57:24.318Z,1001.504
2023-07-26T04:57:54.315Z,1001.513
2023-07-26T04:58:24.312Z,1001.536
2023-07-26T04:58:54.319Z,1001.576
2023-07-26T04:59:24.317Z,1001.596
2023-07-26T04:59:54.321Z,1001.606
2023-07-26T05:00:24.325Z,1001.609
2023-07-26T05:00:54.338Z,1001.629
2023-07-26T05:01:24.375Z,1001.627
2023-07-26T05:01:54.454Z,1001.616
2023-07-26T05:02:24.394Z,1001.604
2023-07-26T05:02:54.346Z,1001.596
2023-07-26T05:03:24.318Z,1001.6
2023-07-26T05:03:54.364Z,1001.602
2023-07-26T05:04:24.347Z,1001.614
2023-07-26T05:04:54.315Z,1001.637
2023-07-26T05:05:24.329Z,1001.656
2023-07-26T05:05:54.339Z,1001.677
2023-07-26T05:06:24.323Z,1001.688
2023-07-26T05:06:54.537Z,1001.677
2023-07-26T05:07:24.320Z,1001.688
2023-07-26T05:07:54.326Z,1001.699
2023-07-26T05:08:24.317Z,1001.708
2023-07-26T05:08:54.320Z,1001.716
2023-07-26T05:09:24.319Z,1001.727
2023-07-26T05:09:54.322Z,1001.747
2023-07-26T05:10:24.318Z,1001.751
2023-07-26T05:10:54.331Z,1001.758
2023-07-26T05:11:24.382Z,1001.765
2023-07-26T05:11:54.523Z,1001.747
2023-07-26T05:12:24.318Z,1001.738
2023-07-26T05:12:54.326Z,1001.725
2023-07-26T05:13:24.350Z,1001.72
2023-07-26T05:13:54.314Z,1001.709
2023-07-26T05:14:24.325Z,1001.706
2023-07-26T05:14:54.317Z,1001.697
2023-07-26T05:15:24.319Z,1001.7
2023-07-26T05:15:54.318Z,1001.698
2023-07-26T05:16:24.346Z,1001.686
2023-07-26T05:16:54.752Z,1001.664
2023-07-26T05:17:24.319Z,1001.658
2023-07-26T05:17:54.339Z,1001.669
2023-07-26T05:18:24.323Z,1001.677
2023-07-26T05:18:54.339Z,1001.679
2023-07-26T05:19:24.329Z,1001.693
2023-07-26T05:19:54.322Z,1001.704
2023-07-26T05:20:24.321Z,1001.721
2023-07-26T05:20:54.341Z,1001.735
2023-07-26T05:21:24.326Z,1001.746
2023-07-26T05:21:54.480Z,1001.751
2023-07-26T05:22:24.323Z,1001.764
2023-07-26T05:22:54.344Z,1001.76
2023-07-26T05:23:24.328Z,1001.764
2023-07-26T05:23:54.337Z,1001.762
2023-07-26T05:24:24.370Z,1001.771
2023-07-26T05:24:54.371Z,1001.776
2023-07-26T05:25:24.322Z,1001.771
2023-07-26T05:25:54.339Z,1001.775
2023-07-26T05:26:24.326Z,1001.784
2023-07-26T05:26:54.598Z,1001.788
2023-07-26T05:27:24.333Z,1001.773
2023-07-26T05:27:54.328Z,1001.767
2023-07-26T05:28:24.327Z,1001.773
2023-07-26T05:28:54.325Z,1001.772
2023-07-26T05:29:24.322Z,1001.775
2023-07-26T05:29:54.362Z,1001.776
2023-07-26T05:30:24.333Z,1001.775
2023-07-26T05:30:54.381Z,1001.764
2023-07-26T05:31:24.345Z,1001.753
2023-07-26T05:31:54.481Z,1001.741
2023-07-26T05:32:24.353Z,1001.726
2023-07-26T05:32:54.419Z,1001.719
2023-07-26T05:33:24.327Z,1001.704
2023-07-26T05:33:54.329Z,1001.702
2023-07-26T05:34:24.339Z,1001.701
2023-07-26T05:34:54.330Z,1001.701
2023-07-26T05:35:24.325Z,1001.696
2023-07-26T05:35:54.345Z,1001.694
2023-07-26T05:36:24.337Z,1001.713
2023-07-26T05:36:54.555Z,1001.721
2023-07-26T05:37:25.471Z,1001.735
2023-07-26T05:37:54.342Z,1001.753
2023-07-26T05:38:24.332Z,1001.741
2023-07-26T05:38:54.332Z,1001.739
2023-07-26T05:39:24.328Z,1001.733
2023-07-26T05:39:54.329Z,1001.742
2023-07-26T05:40:24.335Z,1001.751
2023-07-26T05:40:54.330Z,1001.763
2023-07-26T05:41:24.330Z,1001.746
2023-07-26T05:41:54.611Z,1001.75
2023-07-26T05:42:24.335Z,1001.749
2023-07-26T05:42:54.335Z,1001.753
2023-07-26T05:43:24.334Z,1001.756
2023-07-26T05:43:54.343Z,1001.757
2023-07-26T05:44:24.332Z,1001.769
2023-07-26T05:44:54.332Z,1001.759
2023-07-26T05:45:24.337Z,1001.762
2023-07-26T05:45:54.332Z,1001.76
2023-07-26T05:46:24.374Z,1001.75
2023-07-26T05:46:54.477Z,1001.745
2023-07-26T05:47:24.390Z,1001.746
2023-07-26T05:47:54.370Z,1001.745
2023-07-26T05:48:24.331Z,1001.745
2023-07-26T05:48:54.340Z,1001.746
2023-07-26T05:49:24.347Z,1001.742
2023-07-26T05:49:54.346Z,1001.733
2023-07-26T05:50:25.868Z,1001.734
2023-07-26T05:50:54.338Z,1001.733
2023-07-26T05:51:24.338Z,1001.715
2023-07-26T05:51:54.393Z,1001.703
2023-07-26T05:52:24.341Z,1001.712
2023-07-26T05:52:54.344Z,1001.725
2023-07-26T05:53:24.342Z,1001.727
2023-07-26T05:53:54.346Z,1001.75